sensor_id;sensor_type;location;lat;lon;timestamp;pressure;altitude;pressure_sealevel;temperature;humidity
64115;BME280;62188;35.640;139.748;2022-07-23T00:01:50;99960.64;;;33.01;42.19
64115;BME280;62188;35.640;139.748;2022-07-23T00:04:16;99962.13;;;33.24;41.84
64115;BME280;62188;35.640;139.748;2022-07-23T00:06:40;99963.68;;;33.59;41.88
64115;BME280;62188;35.640;139.748;2022-07-23T00:09:05;99965.34;;;33.14;41.75
64115;BME280;62188;35.640;139.748;2022-07-23T00:11:31;99966.84;;;33.18;41.68
64115;BME280;62188;35.640;139.748;2022-07-23T00:13:56;99967.13;;;32.94;41.16
64115;BME280;62188;35.640;139.748;2022-07-23T00:16:21;99973.33;;;32.72;41.21
64115;BME280;62188;35.640;139.748;2022-07-23T00:18:46;99971.06;;;32.91;41.45
64115;BME280;62188;35.640;139.748;2022-07-23T00:21:12;99969.51;;;32.97;41.35
64115;BME280;62188;35.640;139.748;2022-07-23T00:23:37;99973.61;;;32.84;42.27
64115;BME280;62188;35.640;139.748;2022-07-23T00:26:02;99974.08;;;32.76;42.66
64115;BME280;62188;35.640;139.748;2022-07-23T00:28:28;99978.37;;;32.65;43.10
64115;BME280;62188;35.640;139.748;2022-07-23T00:30:53;99977.49;;;32.37;42.88
64115;BME280;62188;35.640;139.748;2022-07-23T00:33:19;99972.53;;;32.32;43.02
64115;BME280;62188;35.640;139.748;2022-07-23T00:35:44;99974.94;;;32.50;43.24
64115;BME280;62188;35.640;139.748;2022-07-23T00:38:10;99978.54;;;32.47;42.91
64115;BME280;62188;35.640;139.748;2022-07-23T00:40:36;99980.11;;;32.77;43.18
64115;BME280;62188;35.640;139.748;2022-07-23T00:43:01;99982.06;;;32.85;43.16
64115;BME280;62188;35.640;139.748;2022-07-23T00:45:26;99980.75;;;32.99;42.92
64115;BME280;62188;35.640;139.748;2022-07-23T00:47:51;99981.35;;;33.51;42.46
64115;BME280;62188;35.640;139.748;2022-07-23T00:50:17;99982.07;;;33.49;42.36
64115;BME280;62188;35.640;139.748;2022-07-23T00:52:42;99977.60;;;33.42;42.11
64115;BME280;62188;35.640;139.748;2022-07-23T00:55:08;99980.54;;;33.80;42.19
64115;BME280;62188;35.640;139.748;2022-07-23T00:57:32;99981.15;;;33.86;41.47
64115;BME280;62188;35.640;139.748;2022-07-23T00:59:58;99983.65;;;33.80;41.67
64115;BME280;62188;35.640;139.748;2022-07-23T01:02:23;99986.56;;;34.15;41.68
64115;BME280;62188;35.640;139.748;2022-07-23T01:04:48;99993.67;;;33.90;40.61
64115;BME280;62188;35.640;139.748;2022-07-23T01:07:13;99993.08;;;33.95;40.92
64115;BME280;62188;35.640;139.748;2022-07-23T01:09:39;99996.10;;;33.93;41.37
64115;BME280;62188;35.640;139.748;2022-07-23T01:12:05;99993.37;;;33.96;40.62
64115;BME280;62188;35.640;139.748;2022-07-23T01:14:30;99994.06;;;34.06;40.99
64115;BME280;62188;35.640;139.748;2022-07-23T01:16:55;99995.87;;;33.77;41.12
64115;BME280;62188;35.640;139.748;2022-07-23T01:19:21;99998.12;;;33.58;41.36
64115;BME280;62188;35.640;139.748;2022-07-23T01:21:49;99999.37;;;33.27;41.39
64115;BME280;62188;35.640;139.748;2022-07-23T01:24:12;100001.80;;;33.23;42.00
64115;BME280;62188;35.640;139.748;2022-07-23T01:26:37;99999.78;;;33.04;42.27
64115;BME280;62188;35.640;139.748;2022-07-23T01:29:02;100004.04;;;33.61;42.26
64115;BME280;62188;35.640;139.748;2022-07-23T01:31:27;100003.22;;;33.54;41.56
64115;BME280;62188;35.640;139.748;2022-07-23T01:33:53;100009.21;;;33.71;41.63
64115;BME280;62188;35.640;139.748;2022-07-23T01:36:18;100010.91;;;33.87;41.11
64115;BME280;62188;35.640;139.748;2022-07-23T01:38:44;100011.29;;;33.92;41.33
64115;BME280;62188;35.640;139.748;2022-07-23T01:41:10;100010.87;;;34.04;41.57
64115;BME280;62188;35.640;139.748;2022-07-23T01:43:35;100010.42;;;34.11;40.97
64115;BME280;62188;35.640;139.748;2022-07-23T01:46:00;100010.56;;;33.99;40.76
64115;BME280;62188;35.640;139.748;2022-07-23T01:48:25;100006.74;;;33.98;40.85
64115;BME280;62188;35.640;139.748;2022-07-23T01:50:51;100006.98;;;34.04;41.08
64115;BME280;62188;35.640;139.748;2022-07-23T01:53:16;100006.23;;;34.18;41.02
64115;BME280;62188;35.640;139.748;2022-07-23T01:55:40;100005.26;;;34.14;40.58
64115;BME280;62188;35.640;139.748;2022-07-23T01:58:06;100006.15;;;34.10;40.66
64115;BME280;62188;35.640;139.748;2022-07-23T02:00:31;100007.23;;;34.47;40.58
64115;BME280;62188;35.640;139.748;2022-07-23T02:02:57;100012.22;;;34.55;39.96
64115;BME280;62188;35.640;139.748;2022-07-23T02:05:22;100011.33;;;34.43;39.93
64115;BME280;62188;35.640;139.748;2022-07-23T02:07:48;100014.29;;;34.30;40.24
64115;BME280;62188;35.640;139.748;2022-07-23T02:10:13;100019.94;;;33.92;40.21
64115;BME280;62188;35.640;139.748;2022-07-23T02:12:39;100018.84;;;33.90;40.07
64115;BME280;62188;35.640;139.748;2022-07-23T02:15:06;100018.51;;;34.03;39.74
64115;BME280;62188;35.640;139.748;2022-07-23T02:17:30;100010.23;;;33.57;40.17
64115;BME280;62188;35.640;139.748;2022-07-23T02:19:56;100011.08;;;33.55;40.46
64115;BME280;62188;35.640;139.748;2022-07-23T02:22:21;100003.66;;;33.44;40.60
64115;BME280;62188;35.640;139.748;2022-07-23T02:24:47;100001.66;;;33.49;40.10
64115;BME280;62188;35.640;139.748;2022-07-23T02:27:12;100004.55;;;33.58;39.96
64115;BME280;62188;35.640;139.748;2022-07-23T02:29:38;100000.42;;;33.63;39.43
64115;BME280;62188;35.640;139.748;2022-07-23T02:32:03;100001.27;;;33.87;39.27
64115;BME280;62188;35.640;139.748;2022-07-23T02:34:28;99998.28;;;33.45;39.25
64115;BME280;62188;35.640;139.748;2022-07-23T02:36:53;99993.70;;;33.56;39.20
64115;BME280;62188;35.640;139.748;2022-07-23T02:39:18;99995.21;;;33.28;38.89
64115;BME280;62188;35.640;139.748;2022-07-23T02:41:43;99989.63;;;33.10;39.18
64115;BME280;62188;35.640;139.748;2022-07-23T02:44:09;99994.23;;;33.08;39.23
64115;BME280;62188;35.640;139.748;2022-07-23T02:46:35;99991.58;;;33.27;39.35
64115;BME280;62188;35.640;139.748;2022-07-23T02:49:00;99987.26;;;33.37;39.22
64115;BME280;62188;35.640;139.748;2022-07-23T02:51:25;99994.91;;;33.78;38.65
64115;BME280;62188;35.640;139.748;2022-07-23T02:53:50;99999.75;;;33.82;38.96
64115;BME280;62188;35.640;139.748;2022-07-23T02:56:15;99998.54;;;33.56;38.06
64115;BME280;62188;35.640;139.748;2022-07-23T02:58:40;99992.95;;;33.51;38.14
64115;BME280;62188;35.640;139.748;2022-07-23T03:01:06;99999.84;;;33.77;37.78
64115;BME280;62188;35.640;139.748;2022-07-23T03:03:31;100001.34;;;33.68;37.72
64115;BME280;62188;35.640;139.748;2022-07-23T03:05:57;100001.84;;;33.39;37.81
64115;BME280;62188;35.640;139.748;2022-07-23T03:08:21;99984.29;;;33.20;38.34
64115;BME280;62188;35.640;139.748;2022-07-23T03:10:47;99983.58;;;33.69;38.61
64115;BME280;62188;35.640;139.748;2022-07-23T03:13:12;99984.07;;;33.60;38.15
64115;BME280;62188;35.640;139.748;2022-07-23T03:15:38;99981.52;;;33.76;37.73
64115;BME280;62188;35.640;139.748;2022-07-23T03:18:03;99979.06;;;33.80;37.61
64115;BME280;62188;35.640;139.748;2022-07-23T03:20:28;99979.27;;;33.85;37.60
64115;BME280;62188;35.640;139.748;2022-07-23T03:22:54;99975.38;;;33.99;37.29
64115;BME280;62188;35.640;139.748;2022-07-23T03:25:19;99973.07;;;34.20;37.45
64115;BME280;62188;35.640;139.748;2022-07-23T03:27:45;99974.06;;;34.03;37.51
64115;BME280;62188;35.640;139.748;2022-07-23T03:30:11;99971.31;;;34.12;37.32
64115;BME280;62188;35.640;139.748;2022-07-23T03:32:35;99966.48;;;33.89;37.39
64115;BME280;62188;35.640;139.748;2022-07-23T03:35:00;99970.76;;;33.99;37.22
64115;BME280;62188;35.640;139.748;2022-07-23T03:37:25;99971.73;;;34.04;37.26
64115;BME280;62188;35.640;139.748;2022-07-23T03:39:50;99973.38;;;34.15;37.40
64115;BME280;62188;35.640;139.748;2022-07-23T03:42:15;99974.56;;;34.22;36.82
64115;BME280;62188;35.640;139.748;2022-07-23T03:44:41;99974.63;;;33.95;36.84
64115;BME280;62188;35.640;139.748;2022-07-23T03:47:07;99977.79;;;34.32;36.85
64115;BME280;62188;35.640;139.748;2022-07-23T03:49:33;99976.62;;;34.32;36.27
64115;BME280;62188;35.640;139.748;2022-07-23T03:51:57;99981.91;;;34.30;36.27
64115;BME280;62188;35.640;139.748;2022-07-23T03:54:23;99977.23;;;34.16;36.28
64115;BME280;62188;35.640;139.748;2022-07-23T03:56:48;99979.01;;;33.98;36.20
64115;BME280;62188;35.640;139.748;2022-07-23T03:59:13;99975.62;;;34.23;35.86
64115;BME280;62188;35.640;139.748;2022-07-23T04:01:38;99977.26;;;34.04;35.69
64115;BME280;62188;35.640;139.748;2022-07-23T04:04:03;99977.01;;;34.30;36.00
64115;BME280;62188;35.640;139.748;2022-07-23T04:06:28;99976.99;;;34.36;35.40
64115;BME280;62188;35.640;139.748;2022-07-23T04:08:54;99976.83;;;34.38;35.44
64115;BME280;62188;35.640;139.748;2022-07-23T04:11:20;99975.28;;;34.09;35.49
64115;BME280;62188;35.640;139.748;2022-07-23T04:13:45;99970.99;;;34.35;35.37
64115;BME280;62188;35.640;139.748;2022-07-23T04:16:10;99984.15;;;34.20;35.33
64115;BME280;62188;35.640;139.748;2022-07-23T04:18:36;99985.11;;;33.90;35.51
64115;BME280;62188;35.640;139.748;2022-07-23T04:21:01;99985.87;;;34.09;35.47
64115;BME280;62188;35.640;139.748;2022-07-23T04:23:26;99981.00;;;33.99;35.59
64115;BME280;62188;35.640;139.748;2022-07-23T04:25:52;99982.95;;;33.56;35.65
64115;BME280;62188;35.640;139.748;2022-07-23T04:28:17;99979.59;;;33.95;35.69
64115;BME280;62188;35.640;139.748;2022-07-23T04:30:42;99986.86;;;33.45;35.59
64115;BME280;62188;35.640;139.748;2022-07-23T04:33:07;99991.15;;;33.51;35.36
64115;BME280;62188;35.640;139.748;2022-07-23T04:35:33;99990.44;;;33.52;35.54
64115;BME280;62188;35.640;139.748;2022-07-23T04:37:58;99991.83;;;33.69;35.47
64115;BME280;62188;35.640;139.748;2022-07-23T04:40:23;99991.76;;;33.81;34.91
64115;BME280;62188;35.640;139.748;2022-07-23T04:42:49;99995.76;;;33.94;34.81
64115;BME280;62188;35.640;139.748;2022-07-23T04:45:14;99993.41;;;33.95;34.32
64115;BME280;62188;35.640;139.748;2022-07-23T04:47:39;99991.11;;;33.83;33.61
64115;BME280;62188;35.640;139.748;2022-07-23T04:50:05;99989.20;;;33.76;33.27
64115;BME280;62188;35.640;139.748;2022-07-23T04:52:30;99993.17;;;34.30;33.04
64115;BME280;62188;35.640;139.748;2022-07-23T04:54:55;99993.38;;;33.92;33.07
64115;BME280;62188;35.640;139.748;2022-07-23T04:57:21;99987.86;;;33.90;32.43
64115;BME280;62188;35.640;139.748;2022-07-23T04:59:46;99986.36;;;33.92;32.87
64115;BME280;62188;35.640;139.748;2022-07-23T05:02:11;99983.73;;;33.98;33.62
64115;BME280;62188;35.640;139.748;2022-07-23T05:04:37;99985.83;;;34.03;33.51
64115;BME280;62188;35.640;139.748;2022-07-23T05:07:01;99990.49;;;34.00;33.42
64115;BME280;62188;35.640;139.748;2022-07-23T05:09:27;99989.92;;;33.86;33.76
64115;BME280;62188;35.640;139.748;2022-07-23T05:11:52;99991.76;;;33.71;34.20
64115;BME280;62188;35.640;139.748;2022-07-23T05:14:18;99994.08;;;33.41;34.44
64115;BME280;62188;35.640;139.748;2022-07-23T05:16:43;99994.37;;;33.35;35.16
64115;BME280;62188;35.640;139.748;2022-07-23T05:19:08;99994.89;;;33.24;35.27
64115;BME280;62188;35.640;139.748;2022-07-23T05:21:33;99997.93;;;33.28;35.69
64115;BME280;62188;35.640;139.748;2022-07-23T05:23:59;100004.30;;;33.18;35.83
64115;BME280;62188;35.640;139.748;2022-07-23T05:26:24;99997.83;;;33.19;36.11
64115;BME280;62188;35.640;139.748;2022-07-23T05:28:49;100003.88;;;33.14;35.49
64115;BME280;62188;35.640;139.748;2022-07-23T05:31:14;100007.05;;;33.08;35.94
64115;BME280;62188;35.640;139.748;2022-07-23T05:33:40;100010.55;;;33.07;35.82
64115;BME280;62188;35.640;139.748;2022-07-23T05:36:06;100011.93;;;32.90;35.68
64115;BME280;62188;35.640;139.748;2022-07-23T05:38:31;100005.61;;;33.27;36.31
64115;BME280;62188;35.640;139.748;2022-07-23T05:40:56;100005.26;;;33.33;36.15
64115;BME280;62188;35.640;139.748;2022-07-23T05:43:21;100002.35;;;32.94;36.47
64115;BME280;62188;35.640;139.748;2022-07-23T05:45:46;100001.10;;;33.01;36.84
64115;BME280;62188;35.640;139.748;2022-07-23T05:48:11;100003.69;;;33.56;37.21
64115;BME280;62188;35.640;139.748;2022-07-23T05:50:38;100003.12;;;33.27;36.64
64115;BME280;62188;35.640;139.748;2022-07-23T05:53:04;100004.72;;;33.10;37.29
64115;BME280;62188;35.640;139.748;2022-07-23T05:55:29;100006.93;;;33.16;37.03
64115;BME280;62188;35.640;139.748;2022-07-23T05:57:54;100005.39;;;33.06;36.85
64115;BME280;62188;35.640;139.748;2022-07-23T06:00:20;100002.65;;;32.85;36.76
64115;BME280;62188;35.640;139.748;2022-07-23T06:02:44;100001.93;;;33.37;37.01
64115;BME280;62188;35.640;139.748;2022-07-23T06:05:10;100000.23;;;33.08;37.24
64115;BME280;62188;35.640;139.748;2022-07-23T06:07:36;100002.40;;;33.02;37.39
64115;BME280;62188;35.640;139.748;2022-07-23T06:10:01;100004.26;;;33.05;37.29
64115;BME280;62188;35.640;139.748;2022-07-23T06:12:27;100009.31;;;32.98;36.86
64115;BME280;62188;35.640;139.748;2022-07-23T06:14:52;100008.59;;;32.99;36.88
64115;BME280;62188;35.640;139.748;2022-07-23T06:17:17;100008.61;;;32.59;36.79
64115;BME280;62188;35.640;139.748;2022-07-23T06:19:43;100011.75;;;32.81;36.91
64115;BME280;62188;35.640;139.748;2022-07-23T06:22:07;100010.63;;;32.52;36.64
64115;BME280;62188;35.640;139.748;2022-07-23T06:24:33;100013.36;;;33.03;36.90
64115;BME280;62188;35.640;139.748;2022-07-23T06:26:58;100015.39;;;33.03;36.85
64115;BME280;62188;35.640;139.748;2022-07-23T06:29:24;100015.33;;;32.94;36.84
64115;BME280;62188;35.640;139.748;2022-07-23T06:31:49;100023.39;;;32.75;36.17
64115;BME280;62188;35.640;139.748;2022-07-23T06:34:14;100027.51;;;32.90;36.26
64115;BME280;62188;35.640;139.748;2022-07-23T06:36:40;100027.32;;;33.17;36.50
64115;BME280;62188;35.640;139.748;2022-07-23T06:39:05;100029.98;;;33.23;36.19
64115;BME280;62188;35.640;139.748;2022-07-23T06:41:30;100037.36;;;33.07;36.30
64115;BME280;62188;35.640;139.748;2022-07-23T06:43:55;100043.24;;;33.09;35.98
64115;BME280;62188;35.640;139.748;2022-07-23T06:46:21;100044.78;;;33.06;35.73
64115;BME280;62188;35.640;139.748;2022-07-23T06:48:46;100040.36;;;33.11;35.82
64115;BME280;62188;35.640;139.748;2022-07-23T06:51:11;100045.31;;;33.43;35.92
64115;BME280;62188;35.640;139.748;2022-07-23T06:53:36;100046.82;;;33.24;35.49
64115;BME280;62188;35.640;139.748;2022-07-23T06:56:02;100048.22;;;33.03;35.51
64115;BME280;62188;35.640;139.748;2022-07-23T06:58:27;100051.93;;;33.25;35.32
64115;BME280;62188;35.640;139.748;2022-07-23T07:00:52;100050.65;;;33.03;35.34
64115;BME280;62188;35.640;139.748;2022-07-23T07:03:18;100054.23;;;33.30;35.53
64115;BME280;62188;35.640;139.748;2022-07-23T07:05:43;100054.19;;;32.94;35.64
64115;BME280;62188;35.640;139.748;2022-07-23T07:08:08;100044.95;;;32.93;35.61
64115;BME280;62188;35.640;139.748;2022-07-23T07:10:34;100050.82;;;32.94;35.93
64115;BME280;62188;35.640;139.748;2022-07-23T07:12:58;100053.00;;;33.09;35.94
64115;BME280;62188;35.640;139.748;2022-07-23T07:15:24;100055.22;;;32.81;36.09
64115;BME280;62188;35.640;139.748;2022-07-23T07:17:49;100060.29;;;32.93;36.53
64115;BME280;62188;35.640;139.748;2022-07-23T07:20:14;100061.50;;;32.90;35.95
64115;BME280;62188;35.640;139.748;2022-07-23T07:22:40;100058.97;;;32.71;36.01
64115;BME280;62188;35.640;139.748;2022-07-23T07:25:06;100065.91;;;32.99;35.93
64115;BME280;62188;35.640;139.748;2022-07-23T07:27:30;100070.62;;;32.95;36.05
64115;BME280;62188;35.640;139.748;2022-07-23T07:29:55;100073.56;;;33.24;36.08
64115;BME280;62188;35.640;139.748;2022-07-23T07:32:22;100082.75;;;33.30;35.87
64115;BME280;62188;35.640;139.748;2022-07-23T07:34:46;100086.43;;;32.96;35.36
64115;BME280;62188;35.640;139.748;2022-07-23T07:37:12;100090.79;;;33.03;35.36
64115;BME280;62188;35.640;139.748;2022-07-23T07:39:37;100088.95;;;33.29;35.00
64115;BME280;62188;35.640;139.748;2022-07-23T07:42:03;100088.13;;;33.04;34.97
64115;BME280;62188;35.640;139.748;2022-07-23T07:44:28;100088.02;;;33.29;34.97
64115;BME280;62188;35.640;139.748;2022-07-23T07:46:53;100089.06;;;33.12;35.27
64115;BME280;62188;35.640;139.748;2022-07-23T07:49:18;100087.17;;;33.39;35.26
64115;BME280;62188;35.640;139.748;2022-07-23T07:51:43;100088.56;;;32.91;34.88
64115;BME280;62188;35.640;139.748;2022-07-23T07:54:09;100091.82;;;33.08;34.20
64115;BME280;62188;35.640;139.748;2022-07-23T07:56:35;100096.31;;;32.99;34.23
64115;BME280;62188;35.640;139.748;2022-07-23T07:59:00;100094.68;;;33.12;34.16
64115;BME280;62188;35.640;139.748;2022-07-23T08:01:26;100097.82;;;32.80;33.94
64115;BME280;62188;35.640;139.748;2022-07-23T08:03:51;100102.53;;;32.86;33.95
64115;BME280;62188;35.640;139.748;2022-07-23T08:06:16;100100.41;;;32.72;33.80
64115;BME280;62188;35.640;139.748;2022-07-23T08:08:41;100100.98;;;32.67;33.97
64115;BME280;62188;35.640;139.748;2022-07-23T08:11:06;100101.65;;;32.55;33.79
64115;BME280;62188;35.640;139.748;2022-07-23T08:13:32;100105.68;;;32.48;34.33
64115;BME280;62188;35.640;139.748;2022-07-23T08:15:58;100105.14;;;32.36;34.23
64115;BME280;62188;35.640;139.748;2022-07-23T08:18:22;100107.22;;;32.33;34.47
64115;BME280;62188;35.640;139.748;2022-07-23T08:20:48;100108.63;;;32.35;34.54
64115;BME280;62188;35.640;139.748;2022-07-23T08:23:13;100114.11;;;32.27;34.81
64115;BME280;62188;35.640;139.748;2022-07-23T08:25:40;100119.39;;;32.22;34.91
64115;BME280;62188;35.640;139.748;2022-07-23T08:28:05;100123.51;;;31.90;34.45
64115;BME280;62188;35.640;139.748;2022-07-23T08:30:29;100123.61;;;32.16;34.26
64115;BME280;62188;35.640;139.748;2022-07-23T08:32:56;100124.12;;;32.09;34.36
64115;BME280;62188;35.640;139.748;2022-07-23T08:35:23;100127.66;;;32.32;34.70
64115;BME280;62188;35.640;139.748;2022-07-23T08:37:45;100122.75;;;32.12;34.38
64115;BME280;62188;35.640;139.748;2022-07-23T08:40:12;100129.46;;;32.14;34.27
64115;BME280;62188;35.640;139.748;2022-07-23T08:42:36;100131.72;;;32.07;34.43
64115;BME280;62188;35.640;139.748;2022-07-23T08:45:01;100130.00;;;32.03;34.48
64115;BME280;62188;35.640;139.748;2022-07-23T08:47:26;100127.71;;;32.36;34.93
64115;BME280;62188;35.640;139.748;2022-07-23T08:49:52;100129.55;;;32.23;35.03
64115;BME280;62188;35.640;139.748;2022-07-23T08:52:17;100140.54;;;32.28;35.10
64115;BME280;62188;35.640;139.748;2022-07-23T08:54:43;100140.13;;;32.23;35.18
64115;BME280;62188;35.640;139.748;2022-07-23T08:57:08;100141.67;;;32.44;35.32
64115;BME280;62188;35.640;139.748;2022-07-23T08:59:33;100144.74;;;32.41;35.47
64115;BME280;62188;35.640;139.748;2022-07-23T09:01:59;100153.25;;;32.23;36.00
64115;BME280;62188;35.640;139.748;2022-07-23T09:04:24;100154.11;;;32.23;35.82
64115;BME280;62188;35.640;139.748;2022-07-23T09:06:49;100161.83;;;32.05;35.79
64115;BME280;62188;35.640;139.748;2022-07-23T09:09:19;100169.67;;;32.24;36.15
64115;BME280;62188;35.640;139.748;2022-07-23T09:11:40;100178.16;;;32.06;36.51
64115;BME280;62188;35.640;139.748;2022-07-23T09:14:05;100179.39;;;32.02;36.52
64115;BME280;62188;35.640;139.748;2022-07-23T09:16:32;100178.65;;;32.29;36.75
64115;BME280;62188;35.640;139.748;2022-07-23T09:18:58;100184.18;;;32.14;36.94
64115;BME280;62188;35.640;139.748;2022-07-23T09:21:25;100190.85;;;32.16;36.92
64115;BME280;62188;35.640;139.748;2022-07-23T09:23:49;100191.52;;;32.13;37.12
64115;BME280;62188;35.640;139.748;2022-07-23T09:26:22;100194.04;;;32.16;36.91
64115;BME280;62188;35.640;139.748;2022-07-23T09:31:03;100195.84;;;32.21;36.70
64115;BME280;62188;35.640;139.748;2022-07-23T09:33:29;100197.97;;;32.23;36.63
64115;BME280;62188;35.640;139.748;2022-07-23T09:35:55;100198.88;;;32.11;37.00
64115;BME280;62188;35.640;139.748;2022-07-23T09:38:21;100198.29;;;32.15;37.06
64115;BME280;62188;35.640;139.748;2022-07-23T09:40:46;100198.40;;;31.92;37.29
64115;BME280;62188;35.640;139.748;2022-07-23T09:43:11;100199.98;;;32.12;37.06
64115;BME280;62188;35.640;139.748;2022-07-23T09:45:36;100201.99;;;32.15;37.25
64115;BME280;62188;35.640;139.748;2022-07-23T09:48:11;100205.62;;;32.08;37.43
64115;BME280;62188;35.640;139.748;2022-07-23T09:50:26;100214.01;;;32.01;37.70
64115;BME280;62188;35.640;139.748;2022-07-23T09:52:51;100214.32;;;32.09;38.11
64115;BME280;62188;35.640;139.748;2022-07-23T09:55:18;100214.60;;;32.02;38.11
64115;BME280;62188;35.640;139.748;2022-07-23T09:57:43;100210.00;;;31.93;38.11
64115;BME280;62188;35.640;139.748;2022-07-23T10:00:11;100211.96;;;31.67;38.10
64115;BME280;62188;35.640;139.748;2022-07-23T10:02:33;100213.41;;;31.91;38.47
64115;BME280;62188;35.640;139.748;2022-07-23T10:04:58;100215.55;;;31.64;38.51
64115;BME280;62188;35.640;139.748;2022-07-23T10:07:24;100220.36;;;32.14;38.33
64115;BME280;62188;35.640;139.748;2022-07-23T10:09:49;100222.78;;;31.62;38.59
64115;BME280;62188;35.640;139.748;2022-07-23T10:12:14;100224.90;;;31.91;38.78
64115;BME280;62188;35.640;139.748;2022-07-23T10:14:39;100230.61;;;31.68;38.59
64115;BME280;62188;35.640;139.748;2022-07-23T10:17:05;100230.08;;;31.70;38.91
64115;BME280;62188;35.640;139.748;2022-07-23T10:19:30;100234.18;;;31.97;38.34
64115;BME280;62188;35.640;139.748;2022-07-23T10:22:00;100234.56;;;31.91;38.65
64115;BME280;62188;35.640;139.748;2022-07-23T10:24:30;100242.23;;;31.78;38.75
64115;BME280;62188;35.640;139.748;2022-07-23T10:26:55;100248.35;;;32.09;38.87
64115;BME280;62188;35.640;139.748;2022-07-23T10:29:19;100251.06;;;31.87;39.27
64115;BME280;62188;35.640;139.748;2022-07-23T10:31:46;100253.56;;;32.11;39.36
64115;BME280;62188;35.640;139.748;2022-07-23T10:34:11;100261.07;;;31.84;38.76
64115;BME280;62188;35.640;139.748;2022-07-23T10:36:32;100265.83;;;32.32;39.22
64115;BME280;62188;35.640;139.748;2022-07-23T10:38:56;100271.24;;;31.69;38.89
64115;BME280;62188;35.640;139.748;2022-07-23T10:41:31;100277.48;;;31.90;39.02
64115;BME280;62188;35.640;139.748;2022-07-23T10:43:42;100283.20;;;31.65;38.83
64115;BME280;62188;35.640;139.748;2022-07-23T10:46:23;100293.93;;;31.72;39.14
64115;BME280;62188;35.640;139.748;2022-07-23T10:48:34;100296.85;;;32.00;39.15
64115;BME280;62188;35.640;139.748;2022-07-23T10:51:10;100301.21;;;31.96;38.83
64115;BME280;62188;35.640;139.748;2022-07-23T10:53:24;100303.75;;;31.74;40.03
64115;BME280;62188;35.640;139.748;2022-07-23T10:55:51;100309.74;;;31.67;40.97
64115;BME280;62188;35.640;139.748;2022-07-23T10:58:20;100313.80;;;31.81;41.37
64115;BME280;62188;35.640;139.748;2022-07-23T11:00:41;100319.83;;;31.37;40.92
64115;BME280;62188;35.640;139.748;2022-07-23T11:05:41;100333.16;;;31.41;41.83
64115;BME280;62188;35.640;139.748;2022-07-23T11:08:12;100343.18;;;31.11;41.33
64115;BME280;62188;35.640;139.748;2022-07-23T11:10:33;100348.58;;;31.32;41.81
64115;BME280;62188;35.640;139.748;2022-07-23T11:12:48;100351.25;;;31.35;41.88
64115;BME280;62188;35.640;139.748;2022-07-23T11:15:15;100348.87;;;31.33;41.87
64115;BME280;62188;35.640;139.748;2022-07-23T11:20:16;100343.97;;;31.22;42.18
64115;BME280;62188;35.640;139.748;2022-07-23T11:22:34;100342.08;;;31.53;42.52
64115;BME280;62188;35.640;139.748;2022-07-23T11:24:55;100343.34;;;31.34;42.50
64115;BME280;62188;35.640;139.748;2022-07-23T11:29:47;100355.65;;;31.63;42.44
64115;BME280;62188;35.640;139.748;2022-07-23T11:32:22;100365.92;;;31.37;42.05
64115;BME280;62188;35.640;139.748;2022-07-23T11:34:39;100368.04;;;31.64;42.52
64115;BME280;62188;35.640;139.748;2022-07-23T11:37:05;100369.31;;;31.59;42.82
64115;BME280;62188;35.640;139.748;2022-07-23T11:39:29;100370.16;;;31.60;42.58
64115;BME280;62188;35.640;139.748;2022-07-23T11:41:54;100368.82;;;31.49;42.14
64115;BME280;62188;35.640;139.748;2022-07-23T11:44:26;100369.84;;;31.27;42.13
64115;BME280;62188;35.640;139.748;2022-07-23T11:49:10;100373.90;;;31.28;42.32
64115;BME280;62188;35.640;139.748;2022-07-23T11:51:35;100375.67;;;31.07;42.83
64115;BME280;62188;35.640;139.748;2022-07-23T11:54:05;100380.48;;;31.33;42.79
64115;BME280;62188;35.640;139.748;2022-07-23T11:56:25;100386.14;;;31.35;43.15
64115;BME280;62188;35.640;139.748;2022-07-23T11:58:55;100387.69;;;31.12;43.04
64115;BME280;62188;35.640;139.748;2022-07-23T12:01:16;100388.47;;;31.12;43.32
64115;BME280;62188;35.640;139.748;2022-07-23T12:03:49;100386.90;;;31.36;43.32
64115;BME280;62188;35.640;139.748;2022-07-23T12:06:07;100384.42;;;31.38;43.41
64115;BME280;62188;35.640;139.748;2022-07-23T12:08:32;100390.55;;;31.44;43.61
64115;BME280;62188;35.640;139.748;2022-07-23T12:10:57;100392.59;;;31.34;43.62
64115;BME280;62188;35.640;139.748;2022-07-23T12:13:22;100398.85;;;31.21;43.73
64115;BME280;62188;35.640;139.748;2022-07-23T12:15:50;100404.55;;;30.82;43.88
64115;BME280;62188;35.640;139.748;2022-07-23T12:18:16;100403.20;;;30.80;44.36
64115;BME280;62188;35.640;139.748;2022-07-23T12:20:40;100404.38;;;30.70;44.58
64115;BME280;62188;35.640;139.748;2022-07-23T12:23:06;100407.41;;;30.66;44.57
64115;BME280;62188;35.640;139.748;2022-07-23T12:25:31;100407.66;;;30.85;44.56
64115;BME280;62188;35.640;139.748;2022-07-23T12:28:03;100410.67;;;30.51;44.70
64115;BME280;62188;35.640;139.748;2022-07-23T12:30:22;100409.49;;;30.90;44.84
64115;BME280;62188;35.640;139.748;2022-07-23T12:32:47;100410.65;;;30.60;44.92
64115;BME280;62188;35.640;139.748;2022-07-23T12:35:10;100411.69;;;30.27;45.30